Time;durP1;ratioP1;P1;durP2;ratioP2;P2;SDS_P1;SDS_P2;PMS_P1;PMS_P2;Temp;Humidity;BMP_temperature;BMP_pressure;BME280_temperature;BME280_humidity;BME280_pressure;Samples;Min_cycle;Max_cycle;Signal;HPM_P1;HPM_P2
2022/06/28 00:02:07;;;;;;;5.15;4.12;;;;;;;22.51;58.86;96640.17;1738819;81;21069;-82
2022/06/28 00:04:36;;;;;;;4.20;3.80;;;;;;;22.52;58.46;96644.42;1685335;84;20987;-81
2022/06/28 00:07:02;;;;;;;4.40;4.00;;;;;;;22.52;58.70;96643.09;1736607;82;20994;-82
2022/06/28 00:09:31;;;;;;;4.37;4.00;;;;;;;22.52;58.76;96646.27;1698153;82;21066;-81
2022/06/28 00:12:05;;;;;;;5.47;4.08;;;;;;;22.50;58.79;96641.75;1758215;81;20991;-81
2022/06/28 00:17:18;;;;;;;4.90;4.35;;;;;;;22.43;58.26;96649.35;1756729;81;21024;-81
2022/06/28 00:19:43;;;;;;;4.92;4.37;;;;;;;22.42;58.56;96644.31;1741418;81;21341;-81
2022/06/28 00:22:09;;;;;;;5.12;4.60;;;;;;;22.40;57.86;96646.41;1739064;81;21019;-82
2022/06/28 00:24:35;;;;;;;5.10;4.60;;;;;;;22.43;57.85;96644.58;1695600;82;21423;-83
2022/06/28 00:27:01;;;;;;;4.42;4.10;;;;;;;22.45;57.67;96645.95;1715693;82;20926;-82
2022/06/28 00:29:27;;;;;;;4.72;4.15;;;;;;;22.48;57.73;96645.98;1737027;81;21010;-82
2022/06/28 00:31:52;;;;;;;6.30;4.55;;;;;;;22.46;57.79;96647.55;1742208;81;21310;-82
2022/06/28 00:34:18;;;;;;;4.42;4.03;;;;;;;22.48;57.40;96643.33;1734925;82;20984;-82
2022/06/28 00:36:45;;;;;;;5.28;4.30;;;;;;;22.49;57.47;96640.95;1712107;82;21390;-82
2022/06/28 00:39:12;;;;;;;5.60;4.22;;;;;;;22.49;57.70;96640.16;1722266;82;20995;-81
2022/06/28 00:41:38;;;;;;;4.50;4.10;;;;;;;22.46;57.58;96643.58;1688565;82;20963;-81
2022/06/28 00:44:03;;;;;;;4.28;3.87;;;;;;;22.44;57.51;96643.00;1738947;81;21374;-81
2022/06/28 00:46:33;;;;;;;4.40;4.00;;;;;;;22.42;57.40;96638.48;1738641;81;20977;-82
2022/06/28 00:48:58;;;;;;;3.98;3.67;;;;;;;22.39;57.28;96636.34;1740122;81;20946;-82
2022/06/28 00:51:24;;;;;;;5.28;4.05;;;;;;;22.39;57.00;96636.88;1728751;81;21412;-82
2022/06/28 00:53:50;;;;;;;5.08;3.77;;;;;;;22.40;57.54;96638.47;1709553;82;21043;-82
2022/06/28 00:56:16;;;;;;;4.12;3.72;;;;;;;22.40;57.50;96645.09;1718186;81;21070;-82
2022/06/28 00:58:42;;;;;;;6.50;4.30;;;;;;;22.38;57.54;96647.98;1737472;81;21370;-82
2022/06/28 01:01:07;;;;;;;7.10;3.58;;;;;;;22.40;57.64;96646.41;1735154;80;21010;-82
2022/06/28 01:03:33;;;;;;;5.42;3.87;;;;;;;22.41;57.52;96645.36;1728790;82;21015;-82
2022/06/28 01:05:59;;;;;;;3.65;3.35;;;;;;;22.39;57.66;96648.78;1730768;82;20914;-82
2022/06/28 01:08:25;;;;;;;4.35;3.95;;;;;;;22.38;57.31;96651.96;1754910;80;21365;-81
2022/06/28 01:10:51;;;;;;;3.85;3.45;;;;;;;22.40;57.04;96657.00;1745719;81;21079;-81
2022/06/28 01:13:17;;;;;;;4.45;3.95;;;;;;;22.43;57.18;96659.14;1740534;80;20999;-82
2022/06/28 01:15:42;;;;;;;4.42;3.77;;;;;;;22.36;57.23;96648.77;1732156;80;20971;-82
2022/06/28 01:18:10;;;;;;;4.25;3.85;;;;;;;22.42;57.34;96666.29;1743338;81;20959;-82
2022/06/28 01:20:36;;;;;;;5.72;3.83;;;;;;;22.43;56.81;96667.88;1740138;81;21398;-82
2022/06/28 01:23:02;;;;;;;4.45;3.80;;;;;;;22.49;57.10;96670.60;1753922;80;21010;-81
2022/06/28 01:25:28;;;;;;;4.72;3.92;;;;;;;22.46;57.07;96671.91;1751673;80;20959;-82
2022/06/28 01:27:54;;;;;;;4.75;4.33;;;;;;;22.43;57.09;96669.20;1739355;81;21318;-81
2022/06/28 01:30:21;;;;;;;4.03;3.72;;;;;;;22.44;56.61;96670.80;1735927;81;20999;-82
2022/06/28 01:32:48;;;;;;;6.60;4.87;;;;;;;22.52;57.01;96676.19;1760071;80;21063;-81
2022/06/28 01:35:14;;;;;;;4.20;3.77;;;;;;;22.52;56.74;96678.04;1759197;80;20940;-81
2022/06/28 01:37:39;;;;;;;3.90;3.60;;;;;;;22.52;56.53;96678.84;1759196;80;20950;-82
2022/06/28 01:40:06;;;;;;;3.75;3.35;;;;;;;22.50;56.79;96676.97;1758643;80;21908;-82
2022/06/28 01:42:32;;;;;;;3.80;3.50;;;;;;;22.52;56.68;96687.31;1757780;80;20978;-81
2022/06/28 01:44:59;;;;;;;4.45;3.92;;;;;;;22.51;56.37;96688.36;1753572;80;21411;-82
2022/06/28 01:47:27;;;;;;;4.35;3.45;;;;;;;22.51;56.37;96688.36;1741600;81;21043;-82
2022/06/28 01:49:53;;;;;;;3.65;3.35;;;;;;;22.52;56.81;96695.25;1737401;80;21078;-81
2022/06/28 01:52:20;;;;;;;4.03;3.58;;;;;;;22.52;56.53;96688.63;1749937;80;21074;-81
2022/06/28 01:54:45;;;;;;;4.40;3.60;;;;;;;22.51;56.77;96689.69;1743402;80;21466;-81
2022/06/28 01:57:11;;;;;;;3.75;3.42;;;;;;;22.52;56.53;96684.66;1728983;81;21018;-82
2022/06/28 01:59:38;;;;;;;3.87;3.45;;;;;;;22.52;56.53;96684.66;1729446;80;21019;-82
2022/06/28 02:02:04;;;;;;;4.28;3.87;;;;;;;22.49;56.81;96691.27;1759476;80;20991;-83
2022/06/28 02:04:30;;;;;;;3.95;3.42;;;;;;;22.47;56.74;96690.72;1759076;80;20951;-81
2022/06/28 02:06:56;;;;;;;3.92;3.60;;;;;;;22.43;56.62;96685.09;1738142;80;20967;-81
2022/06/28 02:09:22;;;;;;;4.47;3.83;;;;;;;22.40;56.85;96688.77;1744698;81;21003;-80
2022/06/28 02:11:49;;;;;;;3.67;3.37;;;;;;;22.44;56.21;96693.31;1752978;80;20944;-81
2022/06/28 02:14:14;;;;;;;3.85;3.52;;;;;;;22.44;56.21;96693.31;1758999;80;21338;-82
2022/06/28 02:16:40;;;;;;;5.95;3.67;;;;;;;22.45;56.77;96694.11;1758878;80;21011;-82
2022/06/28 02:19:06;;;;;;;4.08;3.77;;;;;;;22.44;56.81;96696.48;1750971;80;21010;-80
2022/06/28 02:21:36;;;;;;;4.28;3.87;;;;;;;22.46;56.73;96690.44;1744076;81;21018;-81
2022/06/28 02:24:04;;;;;;;4.10;3.45;;;;;;;22.45;56.24;96688.81;1748074;80;20941;-81
2022/06/28 02:26:32;;;;;;;3.65;3.25;;;;;;;22.48;56.50;96691.52;1729984;80;20948;-82
2022/06/28 02:29:00;;;;;;;4.55;3.37;;;;;;;22.53;55.93;96687.05;1729741;81;21388;-81
2022/06/28 02:31:26;;;;;;;5.58;3.70;;;;;;;22.56;55.89;96687.08;1749690;80;21025;-82
2022/06/28 02:33:52;;;;;;;3.45;3.15;;;;;;;22.56;55.75;96682.58;1745126;81;21018;-81
2022/06/28 02:41:43;;;;;;;3.87;3.37;;;;;;;22.60;55.92;96682.88;1737935;80;20967;-81
2022/06/28 02:44:09;;;;;;;4.12;3.37;;;;;;;22.63;55.54;96685.84;1743973;81;20936;-81
2022/06/28 02:46:35;;;;;;;3.92;3.35;;;;;;;22.69;55.66;96681.38;1753192;80;20955;-81
2022/06/28 02:49:01;;;;;;;3.45;3.05;;;;;;;22.70;54.90;96675.83;1759106;80;21356;-81
2022/06/28 02:51:27;;;;;;;3.42;3.12;;;;;;;22.82;54.94;96681.01;1736445;80;21022;-81
2022/06/28 02:53:53;;;;;;;4.03;3.55;;;;;;;22.89;54.83;96678.14;1742650;81;21015;-82
2022/06/28 02:56:19;;;;;;;4.10;3.27;;;;;;;22.92;55.00;96675.77;1751851;80;21016;-81
2022/06/28 02:58:45;;;;;;;3.70;3.27;;;;;;;22.92;54.70;96686.90;1734193;81;21013;-81
2022/06/28 03:01:11;;;;;;;3.30;3.00;;;;;;;22.94;54.23;96678.17;1734018;80;20993;-82
2022/06/28 03:03:36;;;;;;;3.30;3.10;;;;;;;22.99;54.28;96679.03;1691201;82;21007;-81
2022/06/28 03:06:04;;;;;;;6.33;3.50;;;;;;;23.04;54.44;96679.59;1748490;81;21359;-81
2022/06/28 03:08:30;;;;;;;3.87;3.30;;;;;;;23.09;54.13;96680.94;1732327;80;21356;-82
2022/06/28 03:10:56;;;;;;;3.85;3.37;;;;;;;23.14;53.50;96686.83;1713421;80;21010;-82
2022/06/28 03:13:21;;;;;;;3.62;3.30;;;;;;;23.19;54.01;96672.28;1699288;82;21050;-81
2022/06/28 03:15:47;;;;;;;3.77;3.00;;;;;;;23.25;53.69;96677.34;1729930;81;21352;-82
2022/06/28 03:18:13;;;;;;;4.42;3.72;;;;;;;23.32;53.34;96675.29;1685662;82;20986;-81
2022/06/28 03:20:39;;;;;;;4.75;2.90;;;;;;;23.38;53.82;96670.02;1737545;81;20951;-82
2022/06/28 03:23:04;;;;;;;3.00;2.70;;;;;;;23.38;53.87;96677.44;1715355;81;21035;-81
2022/06/28 03:25:30;;;;;;;4.53;2.98;;;;;;;23.36;54.06;96682.20;1732499;81;21010;-81
2022/06/28 03:27:56;;;;;;;4.05;3.45;;;;;;;23.33;53.90;96674.23;1747769;81;20987;-82
2022/06/28 03:30:22;;;;;;;4.28;3.02;;;;;;;23.32;54.11;96675.82;1721350;81;21035;-82
2022/06/28 03:32:48;;;;;;;4.25;3.30;;;;;;;23.34;53.79;96677.69;1743613;82;21061;-82
2022/06/28 03:35:14;;;;;;;4.40;3.10;;;;;;;23.38;54.08;96675.31;1692926;81;21008;-81
2022/06/28 03:37:39;;;;;;;4.03;3.30;;;;;;;23.41;54.15;96675.59;1734371;81;21449;-81
2022/06/28 03:40:06;;;;;;;4.35;2.85;;;;;;;23.43;54.16;96681.47;1740054;81;20956;-82
2022/06/28 03:42:32;;;;;;;4.00;3.20;;;;;;;23.46;53.77;96686.26;1707973;81;21002;-81
2022/06/28 03:44:57;;;;;;;5.05;3.12;;;;;;;23.51;53.26;96688.13;1713823;81;21404;-82
2022/06/28 03:47:23;;;;;;;7.33;5.40;;;;;;;23.57;54.25;96691.10;1730968;81;20979;-82
2022/06/28 03:49:50;;;;;;;6.00;5.42;;;;;;;23.49;55.11;96696.34;1726696;81;20940;-81
2022/06/28 03:52:15;;;;;;;6.40;5.75;;;;;;;23.29;55.33;96706.30;1712712;82;20940;-81
2022/06/28 03:54:41;;;;;;;7.25;5.70;;;;;;;23.22;55.68;96705.70;1715927;81;20952;-81
2022/06/28 03:57:08;;;;;;;8.63;6.10;;;;;;;23.18;56.10;96712.56;1753926;81;21100;-81
2022/06/28 03:59:36;;;;;;;5.90;5.40;;;;;;;23.16;56.85;96711.23;1724121;81;21052;-82
2022/06/28 04:02:03;;;;;;;6.72;6.12;;;;;;;23.11;57.37;96718.62;1727199;81;21027;-82
2022/06/28 04:04:30;;;;;;;6.28;5.75;;;;;;;23.08;57.70;96723.08;1707232;81;20988;-82
2022/06/28 04:06:55;;;;;;;7.08;5.78;;;;;;;23.05;57.91;96715.64;1703634;83;20977;-82
2022/06/28 04:09:21;;;;;;;6.00;5.40;;;;;;;23.03;58.54;96718.54;1706060;81;21343;-82
2022/06/28 04:11:47;;;;;;;5.53;5.10;;;;;;;23.00;58.95;96711.62;1719976;81;20977;-82
2022/06/28 04:14:13;;;;;;;5.35;4.58;;;;;;;22.95;59.77;96711.59;1733479;81;20969;-82
2022/06/28 04:16:41;;;;;;;4.85;3.67;;;;;;;22.87;60.09;96708.86;1713057;81;20966;-81
2022/06/28 04:19:08;;;;;;;4.67;4.20;;;;;;;22.83;60.25;96706.97;1747080;81;20962;-82
2022/06/28 04:21:34;;;;;;;4.53;3.65;;;;;;;22.84;60.51;96709.89;1741716;81;21006;-80
2022/06/28 04:24:00;;;;;;;4.70;4.03;;;;;;;22.84;60.89;96717.84;1741348;81;20913;-81
2022/06/28 04:26:26;;;;;;;4.60;4.20;;;;;;;22.87;60.84;96712.03;1725086;81;20969;-81
2022/06/28 04:28:52;;;;;;;5.22;4.58;;;;;;;22.92;60.33;96717.38;1703601;82;21323;-82
2022/06/28 04:31:18;;;;;;;5.50;3.55;;;;;;;22.97;60.48;96720.09;1679288;83;21521;-82
2022/06/28 04:33:44;;;;;;;3.67;3.25;;;;;;;23.01;58.57;96710.57;1723058;82;21051;-81
2022/06/28 04:36:10;;;;;;;3.65;3.35;;;;;;;23.12;58.80;96714.12;1712539;82;20988;-81
2022/06/28 04:38:35;;;;;;;3.40;2.98;;;;;;;23.19;59.13;96711.52;1721356;81;20985;-82
2022/06/28 04:41:01;;;;;;;4.37;3.10;;;;;;;23.25;58.19;96707.03;1736449;81;21355;-82
2022/06/28 04:43:27;;;;;;;3.72;3.22;;;;;;;23.36;57.90;96696.26;1713251;81;20952;-82
2022/06/28 04:45:52;;;;;;;4.60;3.08;;;;;;;23.36;57.90;96696.26;1732753;81;21034;-82
2022/06/28 04:48:19;;;;;;;3.40;3.10;;;;;;;23.39;57.52;96692.30;1727424;81;21004;-81
2022/06/28 04:50:44;;;;;;;4.22;3.20;;;;;;;23.45;57.11;96693.94;1706456;81;21323;-82
2022/06/28 04:53:10;;;;;;;3.42;3.12;;;;;;;23.51;57.24;96685.48;1706499;81;20937;-82
2022/06/28 04:55:36;;;;;;;3.40;3.10;;;;;;;23.55;56.06;96682.58;1709772;81;20972;-82
2022/06/28 04:58:01;;;;;;;4.25;3.10;;;;;;;23.63;56.27;96671.00;1751900;81;21382;-82
2022/06/28 05:00:28;;;;;;;3.52;3.22;;;;;;;23.69;55.80;96667.84;1729740;81;21011;-82
2022/06/28 05:02:54;;;;;;;4.15;2.87;;;;;;;23.76;55.80;96668.95;1734460;81;20959;-82
2022/06/28 05:05:19;;;;;;;3.45;3.05;;;;;;;23.83;55.58;96662.86;1722165;81;21030;-82
2022/06/28 05:07:45;;;;;;;4.25;3.10;;;;;;;23.89;55.47;96659.96;1717687;81;21306;-81
2022/06/28 05:10:11;;;;;;;3.75;3.00;;;;;;;23.92;55.85;96650.17;1707724;83;21001;-81
2022/06/28 05:12:37;;;;;;;4.20;3.08;;;;;;;23.96;55.41;96650.45;1757749;81;20943;-82
2022/06/28 05:15:03;;;;;;;3.33;2.67;;;;;;;24.01;55.79;96650.46;1742085;80;20935;-82
2022/06/28 05:17:29;;;;;;;4.00;2.70;;;;;;;24.06;55.89;96657.63;1727994;81;20973;-82
2022/06/28 05:19:55;;;;;;;3.55;2.55;;;;;;;24.10;55.40;96651.56;1702665;82;20932;-82
2022/06/28 05:22:21;;;;;;;4.37;3.00;;;;;;;24.19;55.15;96655.82;1742410;80;20966;-82
2022/06/28 05:24:47;;;;;;;4.08;2.80;;;;;;;24.26;55.18;96652.41;1737025;82;21349;-82
2022/06/28 05:27:13;;;;;;;2.75;2.55;;;;;;;24.33;54.79;96656.95;1678048;83;20944;-82
2022/06/28 05:29:38;;;;;;;4.72;2.70;;;;;;;24.45;54.16;96659.38;1680452;83;21083;-81
2022/06/28 05:32:05;;;;;;;4.20;2.50;;;;;;;24.55;54.08;96662.03;1735797;80;21134;-82
2022/06/28 05:34:31;;;;;;;4.12;2.80;;;;;;;24.64;53.97;96657.01;1734265;81;20932;-82
2022/06/28 05:36:58;;;;;;;3.62;2.60;;;;;;;24.73;54.05;96651.42;1740109;80;20997;-82
2022/06/28 05:39:24;;;;;;;4.42;2.95;;;;;;;24.81;53.62;96658.88;1763439;81;20949;-82
2022/06/28 05:41:49;;;;;;;4.05;2.42;;;;;;;24.87;53.55;96661.80;1740101;80;20931;-82
2022/06/28 05:44:16;;;;;;;4.42;3.20;;;;;;;24.91;55.02;96660.22;1736346;82;20959;-81
2022/06/28 05:46:42;;;;;;;6.15;2.40;;;;;;;24.88;55.39;96654.62;1735856;81;21053;-82
2022/06/28 05:49:08;;;;;;;3.12;2.77;;;;;;;24.80;55.44;96650.64;1733885;81;20971;-82
2022/06/28 05:51:33;;;;;;;6.10;3.65;;;;;;;24.73;56.29;96644.77;1718043;83;21009;-81
2022/06/28 05:53:59;;;;;;;3.80;3.47;;;;;;;24.65;56.73;96643.98;1735307;81;20992;-82
2022/06/28 05:56:25;;;;;;;3.62;2.80;;;;;;;24.61;56.53;96646.38;1734868;80;21015;-82
2022/06/28 05:58:51;;;;;;;3.20;2.90;;;;;;;24.66;57.10;96646.91;1747986;81;21069;-82
2022/06/28 06:01:16;;;;;;;7.47;5.35;;;;;;;24.69;57.62;96651.69;1739084;81;21004;-81
2022/06/28 06:03:42;;;;;;;7.67;5.40;;;;;;;24.74;57.75;96657.03;1736787;81;21321;-82
2022/06/28 06:06:08;;;;;;;8.15;5.83;;;;;;;24.82;57.26;96661.80;1743828;81;20933;-82
2022/06/28 06:08:35;;;;;;;5.83;5.30;;;;;;;24.90;57.52;96663.15;1742814;81;20947;-82
2022/06/28 06:11:03;;;;;;;5.92;5.25;;;;;;;24.97;57.83;96664.99;1709807;82;21060;-82
2022/06/28 06:13:28;;;;;;;5.80;5.17;;;;;;;25.04;57.70;96664.21;1736074;82;21363;-82
2022/06/28 06:15:54;;;;;;;5.95;5.45;;;;;;;25.09;57.49;96666.89;1727538;80;21115;-82
2022/06/28 06:18:20;;;;;;;5.35;4.80;;;;;;;25.15;57.58;96663.16;1735235;82;21002;-81
2022/06/28 06:20:46;;;;;;;5.67;4.90;;;;;;;25.19;58.03;96658.89;1743818;80;20985;-81
2022/06/28 06:23:12;;;;;;;5.67;4.80;;;;;;;25.22;57.98;96653.56;1741280;81;20965;-81
2022/06/28 06:25:38;;;;;;;5.97;3.67;;;;;;;25.26;57.59;96657.30;1748656;81;21007;-82
2022/06/28 06:28:04;;;;;;;5.08;4.45;;;;;;;25.32;56.31;96660.20;1736769;80;21433;-82
2022/06/28 06:30:30;;;;;;;6.72;4.78;;;;;;;25.40;57.71;96664.99;1747135;81;20975;-82
2022/06/28 06:32:56;;;;;;;4.58;4.17;;;;;;;25.43;57.63;96662.59;1741820;80;20951;-82
2022/06/28 06:35:22;;;;;;;3.92;3.60;;;;;;;25.48;57.20;96664.97;1716147;83;20981;-81
2022/06/28 06:37:48;;;;;;;4.25;3.95;;;;;;;25.52;57.04;96669.47;1754775;81;20958;-82
2022/06/28 06:40:14;;;;;;;3.83;3.47;;;;;;;25.56;57.84;96666.55;1740931;80;20936;-82
2022/06/28 06:42:39;;;;;;;4.25;3.62;;;;;;;25.61;57.18;96671.85;1741868;80;21348;-82
2022/06/28 06:45:06;;;;;;;6.83;3.90;;;;;;;25.69;56.16;96678.50;1741615;82;21042;-81
2022/06/28 06:47:32;;;;;;;3.87;3.58;;;;;;;25.79;56.86;96678.48;1736217;81;21033;-81
2022/06/28 06:49:58;;;;;;;4.60;3.67;;;;;;;25.87;54.80;96677.11;1736869;81;21049;-83
2022/06/28 06:52:24;;;;;;;3.62;3.33;;;;;;;25.99;55.15;96681.60;1736672;81;20948;-82
2022/06/28 06:54:50;;;;;;;3.98;3.27;;;;;;;26.11;55.27;96683.42;1743639;81;20928;-82
2022/06/28 06:57:16;;;;;;;4.12;2.87;;;;;;;26.14;55.45;96694.85;1741332;81;21335;-83
2022/06/28 06:59:41;;;;;;;4.97;3.40;;;;;;;26.19;55.52;96696.69;1720429;81;20999;-81
2022/06/28 07:02:08;;;;;;;3.55;3.22;;;;;;;26.31;54.10;96697.17;1740448;80;21421;-81
2022/06/28 07:04:34;;;;;;;3.45;3.02;;;;;;;26.40;53.88;96700.09;1744025;81;20932;-82
2022/06/28 07:07:00;;;;;;;3.83;3.17;;;;;;;26.47;53.56;96693.38;1734028;81;20968;-82
2022/06/28 07:09:26;;;;;;;4.70;3.37;;;;;;;26.58;54.14;96693.59;1735428;81;21362;-82
2022/06/28 07:11:52;;;;;;;4.12;3.27;;;;;;;26.75;52.91;96696.42;1735547;80;20904;-82
2022/06/28 07:14:17;;;;;;;3.95;3.40;;;;;;;26.89;51.62;96693.39;1748319;81;20974;-82
2022/06/28 07:16:43;;;;;;;3.80;3.15;;;;;;;27.04;52.03;96684.51;1710501;81;21010;-81
2022/06/28 07:19:09;;;;;;;4.00;3.60;;;;;;;27.19;51.80;96676.38;1725517;81;21333;-81
2022/06/28 07:21:35;;;;;;;4.28;3.85;;;;;;;27.37;50.48;96676.22;1733545;81;20991;-82
2022/06/28 07:24:01;;;;;;;7.10;4.62;;;;;;;27.46;50.75;96670.50;1718018;81;20958;-82
2022/06/28 07:26:29;;;;;;;5.65;4.10;;;;;;;27.54;51.99;96657.09;1707567;81;21017;-83
2022/06/28 07:28:55;;;;;;;3.83;3.37;;;;;;;27.66;51.50;96656.17;1719785;81;21784;-82
2022/06/28 07:31:21;;;;;;;5.03;3.15;;;;;;;27.75;50.08;96654.48;1720526;81;20981;-82
2022/06/28 07:33:47;;;;;;;4.03;3.37;;;;;;;27.84;50.56;96650.11;1732920;81;21400;-82
2022/06/28 07:36:15;;;;;;;4.67;3.40;;;;;;;27.94;49.99;96655.86;1735724;82;21390;-82
2022/06/28 07:38:40;;;;;;;5.90;3.40;;;;;;;28.02;49.44;96652.56;1716657;81;21060;-82
2022/06/28 07:41:06;;;;;;;4.20;3.80;;;;;;;28.19;49.99;96664.10;1715503;81;21008;-82
2022/06/28 07:43:32;;;;;;;4.45;3.67;;;;;;;28.38;49.76;96680.42;1720679;81;20951;-82
2022/06/28 07:45:58;;;;;;;4.10;3.47;;;;;;;28.46;49.76;96687.53;1726858;81;21095;-82
2022/06/28 07:48:24;;;;;;;5.05;3.83;;;;;;;28.45;49.21;96698.77;1712964;81;20932;-83
2022/06/28 07:53:34;;;;;;;8.60;5.12;;;;;;;28.35;49.36;96725.64;1716005;81;21017;-82
2022/06/28 07:56:00;;;;;;;7.83;5.15;;;;;;;28.19;49.86;96742.38;1678705;83;21569;-81
2022/06/28 07:58:26;;;;;;;6.03;5.50;;;;;;;28.01;50.94;96762.61;1716833;81;21392;-81
2022/06/28 08:00:52;;;;;;;8.40;5.58;;;;;;;27.80;51.37;96772.69;1699581;83;20957;-82
2022/06/28 08:03:18;;;;;;;6.90;6.30;;;;;;;27.64;51.79;96773.11;1720013;81;21056;-82
2022/06/28 08:05:43;;;;;;;6.53;5.92;;;;;;;27.43;52.05;96777.27;1680863;83;21439;-82
2022/06/28 08:08:14;;;;;;;8.18;6.08;;;;;;;27.24;52.05;96784.37;1696895;82;21125;-82
2022/06/28 08:10:39;;;;;;;11.80;6.42;;;;;;;27.14;52.48;96783.89;1721310;81;21046;-83
2022/06/28 08:13:05;;;;;;;7.15;6.33;;;;;;;26.99;52.49;96782.63;1695261;82;21042;-80
2022/06/28 08:15:31;;;;;;;9.25;6.58;;;;;;;26.88;53.27;96781.91;1720908;81;21415;-82
2022/06/28 08:17:57;;;;;;;8.53;6.45;;;;;;;26.80;53.63;96779.81;1686051;83;20956;-81
2022/06/28 08:20:22;;;;;;;6.55;6.03;;;;;;;26.78;54.53;96783.29;1730504;80;21444;-81
2022/06/28 08:22:48;;;;;;;8.88;6.92;;;;;;;26.70;54.36;96789.75;1716674;81;20973;-82
2022/06/28 08:25:14;;;;;;;7.75;6.55;;;;;;;26.61;55.05;96790.31;1681905;83;20983;-81
2022/06/28 08:27:40;;;;;;;9.73;6.92;;;;;;;26.62;55.22;96792.44;1720523;81;20930;-82
2022/06/28 08:30:06;;;;;;;10.55;7.70;;;;;;;26.59;55.42;96796.98;1686557;83;21026;-82
2022/06/28 08:32:32;;;;;;;7.65;6.75;;;;;;;26.53;55.56;96798.89;1710487;81;20995;-84
2022/06/28 08:34:58;;;;;;;8.63;7.42;;;;;;;26.62;55.30;96787.11;1723811;81;21327;-85
2022/06/28 08:37:24;;;;;;;8.53;7.20;;;;;;;26.78;55.47;96786.50;1707930;81;20938;-85
2022/06/28 08:39:50;;;;;;;10.38;7.42;;;;;;;26.86;56.43;96789.39;1725184;81;22065;-85
2022/06/28 08:42:20;;;;;;;8.70;7.80;;;;;;;26.92;55.12;96794.95;1692986;83;21055;-85
2022/06/28 08:44:46;;;;;;;8.83;6.62;;;;;;;27.12;55.44;96799.91;1715217;81;21095;-86
2022/06/28 08:47:13;;;;;;;10.38;7.85;;;;;;;27.37;55.14;96810.42;1683432;83;21018;-86
2022/06/28 08:49:53;;;;;;;8.18;6.58;;;;;;;27.55;54.82;96806.81;1718642;81;20939;-85
2022/06/28 08:52:19;;;;;;;8.68;6.17;;;;;;;27.49;54.39;96813.50;1692410;83;21377;-86
2022/06/28 08:54:46;;;;;;;7.15;6.03;;;;;;;27.29;54.63;96822.20;1720932;81;20958;-86
2022/06/28 08:57:12;;;;;;;6.50;5.90;;;;;;;27.17;54.66;96828.70;1681442;83;21154;-85
2022/06/28 08:59:38;;;;;;;6.92;5.90;;;;;;;27.14;55.28;96836.44;1677853;83;21406;-85
2022/06/28 09:02:06;;;;;;;7.60;6.90;;;;;;;27.13;55.60;96839.64;1718875;81;21042;-85
2022/06/28 09:04:32;;;;;;;7.35;6.65;;;;;;;27.06;55.10;96842.38;1717629;81;20962;-85
2022/06/28 09:07:02;;;;;;;7.47;6.62;;;;;;;26.91;55.35;96845.34;1713141;80;21385;-86
2022/06/28 09:09:28;;;;;;;7.80;6.22;;;;;;;26.72;55.00;96846.25;1678256;82;20986;-85
2022/06/28 09:11:54;;;;;;;8.70;6.10;;;;;;;26.52;55.27;96849.27;1722811;81;21358;-84
2022/06/28 09:14:23;;;;;;;7.42;6.37;;;;;;;26.24;55.09;96845.84;1683696;82;20993;-85
2022/06/28 09:16:49;;;;;;;7.70;6.15;;;;;;;26.08;55.29;96845.08;1716316;80;20931;-85
2022/06/28 09:19:16;;;;;;;6.10;5.50;;;;;;;25.80;55.78;96842.97;1711759;81;20998;-84
2022/06/28 09:21:43;;;;;;;7.53;5.72;;;;;;;25.66;56.45;96832.83;1720850;80;21075;-84
2022/06/28 09:24:09;;;;;;;8.05;6.37;;;;;;;25.59;56.78;96826.98;1709413;80;21089;-85
2022/06/28 09:26:35;;;;;;;7.00;6.15;;;;;;;25.47;57.67;96815.80;1731742;80;21041;-86
2022/06/28 09:29:00;;;;;;;6.95;4.72;;;;;;;25.42;59.01;96831.78;1725801;80;21432;-86
2022/06/28 09:31:30;;;;;;;4.03;3.67;;;;;;;25.33;58.64;96834.68;1720333;81;21101;-85
2022/06/28 09:34:07;;;;;;;4.83;4.15;;;;;;;25.19;57.67;96837.05;1720163;81;21045;-84
2022/06/28 09:36:39;;;;;;;4.17;3.62;;;;;;;25.08;58.73;96849.55;1723256;81;20955;-85
2022/06/28 09:39:15;;;;;;;4.08;3.55;;;;;;;24.93;59.43;96862.77;1717473;81;21118;-84
2022/06/28 09:41:50;;;;;;;4.03;3.60;;;;;;;24.85;60.28;96872.02;1712926;81;20987;-85
2022/06/28 09:44:17;;;;;;;4.35;3.95;;;;;;;24.78;61.37;96883.44;1724368;81;20997;-84
2022/06/28 09:46:43;;;;;;;7.35;5.20;;;;;;;24.65;62.29;96893.20;1712211;81;20954;-85
2022/06/28 09:49:08;;;;;;;9.30;6.05;;;;;;;24.45;62.84;96905.06;1719761;81;21022;-84
2022/06/28 09:51:36;;;;;;;7.80;6.37;;;;;;;24.22;63.17;96926.12;1715840;81;21014;-86
2022/06/28 09:54:09;;;;;;;10.70;6.62;;;;;;;23.99;64.20;96931.80;1716685;81;21045;-84
2022/06/28 09:56:41;;;;;;;11.20;7.53;;;;;;;23.79;65.71;96953.13;1719727;81;21341;-84
2022/06/28 09:59:07;;;;;;;10.10;8.20;;;;;;;23.47;66.72;96956.23;1730777;80;21102;-86
2022/06/28 10:01:33;;;;;;;10.05;7.90;;;;;;;23.26;67.56;96955.19;1744132;81;21022;-86
2022/06/28 10:03:59;;;;;;;9.00;8.13;;;;;;;23.12;67.96;96956.64;1732855;81;20947;-84
2022/06/28 10:06:25;;;;;;;10.05;7.85;;;;;;;23.01;68.60;96956.52;1744244;80;20955;-84
2022/06/28 10:08:51;;;;;;;9.35;8.48;;;;;;;22.92;69.60;96963.27;1703895;82;20939;-84
2022/06/28 10:11:18;;;;;;;9.33;8.40;;;;;;;22.82;69.88;96953.05;1732388;80;20967;-83
2022/06/28 10:16:54;;;;;;;8.53;7.40;;;;;;;22.66;70.89;96943.58;1730418;80;20999;-84
2022/06/28 10:19:19;;;;;;;9.50;8.20;;;;;;;22.56;70.95;96943.44;1743595;80;20990;-82
2022/06/28 10:21:49;;;;;;;11.38;10.20;;;;;;;22.50;71.85;96955.53;1732877;81;20983;-82
2022/06/28 10:24:15;;;;;;;8.08;7.28;;;;;;;22.44;71.81;96954.64;1749663;80;21015;-82
2022/06/28 10:26:45;;;;;;;7.35;6.65;;;;;;;22.40;72.14;96953.53;1740802;80;21402;-82
2022/06/28 10:29:11;;;;;;;7.92;7.22;;;;;;;22.28;71.78;96962.88;1733754;81;21007;-82
2022/06/28 10:31:41;;;;;;;7.87;7.17;;;;;;;22.16;71.89;96971.44;1734818;81;21130;-82
2022/06/28 10:34:12;;;;;;;7.78;6.97;;;;;;;22.14;72.57;96972.20;1734292;80;21023;-83
2022/06/28 10:36:54;;;;;;;8.50;7.17;;;;;;;22.06;72.71;96973.91;1751222;81;21386;-82
2022/06/28 10:39:29;;;;;;;7.70;6.97;;;;;;;21.94;73.19;96979.76;1749829;80;21007;-82
2022/06/28 10:42:08;;;;;;;8.00;7.20;;;;;;;21.90;73.88;96984.73;1749735;80;21111;-83
2022/06/28 10:44:41;;;;;;;9.53;7.75;;;;;;;21.84;73.95;96989.66;1747470;81;21099;-82
2022/06/28 10:47:11;;;;;;;8.63;7.67;;;;;;;21.85;74.83;96988.63;1731137;80;20982;-82
2022/06/28 10:49:54;;;;;;;9.55;8.70;;;;;;;21.84;74.99;96980.41;1745428;80;20932;-82
2022/06/28 10:52:31;;;;;;;11.40;10.50;;;;;;;21.87;75.12;96974.63;1734113;80;21016;-82
2022/06/28 10:55:05;;;;;;;10.95;9.70;;;;;;;21.89;75.34;96960.64;1754208;80;20953;-81
2022/06/28 10:57:36;;;;;;;12.05;9.53;;;;;;;21.98;75.70;96958.42;1736497;80;20987;-81
2022/06/28 11:00:11;;;;;;;12.03;11.05;;;;;;;22.00;76.37;96957.66;1750864;80;21023;-82
2022/06/28 11:02:56;;;;;;;11.48;10.30;;;;;;;22.02;76.64;96949.75;1759609;80;21094;-83
2022/06/28 11:05:24;;;;;;;12.98;11.63;;;;;;;22.02;76.64;96950.27;1740717;80;20922;-83
2022/06/28 11:07:56;;;;;;;12.80;11.20;;;;;;;22.01;76.95;96950.80;1731538;81;20968;-83
2022/06/28 11:10:22;;;;;;;14.07;12.78;;;;;;;21.98;77.27;96955.77;1746318;80;20983;-81
2022/06/28 11:12:48;;;;;;;13.28;12.07;;;;;;;21.98;77.62;96952.61;1754941;80;20939;-83
2022/06/28 11:15:39;;;;;;;14.03;12.63;;;;;;;22.00;77.81;96955.01;1757033;80;21023;-82
2022/06/28 11:18:01;;;;;;;15.28;13.72;;;;;;;22.05;78.47;96959.88;1757305;80;20972;-82
2022/06/28 11:20:29;;;;;;;13.78;12.47;;;;;;;22.07;78.37;96953.02;1744658;80;20991;-81
2022/06/28 11:22:55;;;;;;;13.75;12.63;;;;;;;22.14;78.85;96958.45;1715288;80;21317;-81
2022/06/28 11:25:23;;;;;;;18.57;16.73;;;;;;;22.23;78.96;96952.74;1734997;80;20977;-83
2022/06/28 11:27:57;;;;;;;15.15;13.53;;;;;;;22.27;79.08;96945.39;1733437;81;21002;-82
2022/06/28 11:30:27;;;;;;;14.28;13.03;;;;;;;22.29;78.77;96948.62;1733806;80;20975;-83
2022/06/28 11:32:57;;;;;;;14.98;13.50;;;;;;;22.27;78.68;96946.72;1751243;81;22057;-82
2022/06/28 11:35:25;;;;;;;18.92;17.15;;;;;;;22.29;79.02;96945.14;1698764;82;21458;-82
2022/06/28 11:38:02;;;;;;;14.85;13.45;;;;;;;22.26;79.08;96949.08;1716993;82;21291;-82
2022/06/28 11:40:47;;;;;;;13.93;12.73;;;;;;;22.26;79.15;96944.31;1718666;82;21052;-81
2022/06/28 11:43:18;;;;;;;15.48;13.95;;;;;;;22.21;79.03;96945.05;1714859;82;21031;-81
2022/06/28 11:45:50;;;;;;;14.07;12.80;;;;;;;22.15;79.17;96944.70;1710748;82;20991;-81